createdAt,value
2023-01-08T00:01:40.875Z,99084.34
2023-01-08T00:05:44.670Z,99075.50
2023-01-08T00:09:53.191Z,99075.19
2023-01-08T00:13:57.777Z,99072.53
2023-01-08T00:18:00.879Z,99072.53
2023-01-08T00:22:04.143Z,99065.91
2023-01-08T00:26:09.883Z,99066.75
2023-01-08T00:30:13.982Z,99058.97
2023-01-08T00:34:16.752Z,99057.63
2023-01-08T00:38:21.584Z,99051.28
2023-01-08T00:42:25.246Z,99052.59
2023-01-08T00:46:28.553Z,99047.88
2023-01-08T00:50:32.050Z,99056.69
2023-01-08T00:54:35.358Z,99060.16
2023-01-08T00:58:38.487Z,99062.97
2023-01-08T01:02:41.321Z,99063.38
2023-01-08T01:06:45.887Z,99062.34
2023-01-08T01:10:48.001Z,99066.56
2023-01-08T01:14:51.382Z,99060.53
2023-01-08T01:18:55.703Z,99061.19
2023-01-08T01:22:59.500Z,99064.41
2023-01-08T01:27:02.571Z,99071.84
2023-01-08T01:31:07.083Z,99072.75
2023-01-08T01:35:11.207Z,99070.53
2023-01-08T01:39:13.406Z,99072.19
2023-01-08T01:43:15.835Z,99077.41
2023-01-08T01:47:27.428Z,99069.78
2023-01-08T01:51:34.700Z,99065.03
2023-01-08T01:55:41.019Z,99064.28
2023-01-08T01:59:47.325Z,99061.56
2023-01-08T02:03:49.822Z,99052.22
2023-01-08T02:08:12.803Z,99050.09
2023-01-08T02:12:41.412Z,99047.91
2023-01-08T02:17:01.368Z,99037.41
2023-01-08T02:21:09.319Z,99046.81
2023-01-08T02:25:23.605Z,99033.00
2023-01-08T02:29:29.292Z,99030.16
2023-01-08T02:33:32.967Z,99027.28
2023-01-08T02:37:37.068Z,99027.28
2023-01-08T02:42:04.582Z,99023.72
2023-01-08T02:46:09.984Z,99024.72
2023-01-08T02:50:15.831Z,99024.84
2023-01-08T02:54:23.126Z,99018.00
2023-01-08T02:58:30.538Z,99020.09
2023-01-08T03:02:36.459Z,99015.69
2023-01-08T03:06:46.030Z,99011.47
2023-01-08T03:11:08.093Z,99003.72
2023-01-08T03:15:15.465Z,99002.13
2023-01-08T03:19:28.650Z,98994.88
2023-01-08T03:23:37.755Z,98985.94
2023-01-08T03:27:49.699Z,98978.44
2023-01-08T03:31:59.193Z,98978.31
2023-01-08T03:36:05.537Z,98971.88
2023-01-08T03:40:17.930Z,98963.31
2023-01-08T03:44:20.932Z,98960.41
2023-01-08T03:48:26.375Z,98974.50
2023-01-08T03:52:31.363Z,98980.03
2023-01-08T03:56:33.516Z,98977.63
2023-01-08T04:00:35.816Z,98974.88
2023-01-08T04:04:38.933Z,98974.13
2023-01-08T04:08:41.280Z,98970.91
2023-01-08T04:12:43.819Z,98964.88
2023-01-08T04:16:46.099Z,98960.50
2023-01-08T04:20:48.870Z,98956.22
2023-01-08T04:24:51.104Z,98958.81
2023-01-08T04:28:53.821Z,98960.59
2023-01-08T04:32:56.808Z,98955.16
2023-01-08T04:36:59.279Z,98955.41
2023-01-08T04:41:02.784Z,98958.31
2023-01-08T04:45:07.794Z,98957.59
2023-01-08T04:49:11.502Z,98953.50
2023-01-08T04:53:13.782Z,98946.91
2023-01-08T04:57:16.034Z,98945.38
2023-01-08T05:01:24.854Z,98954.13
2023-01-08T05:05:27.718Z,98940.88
2023-01-08T05:09:30.761Z,98943.69
2023-01-08T05:13:33.054Z,98942.41
2023-01-08T05:17:35.317Z,98937.09
2023-01-08T05:21:37.886Z,98921.94
2023-01-08T05:25:40.480Z,98926.72
2023-01-08T05:29:42.728Z,98929.59
2023-01-08T05:33:45.355Z,98926.47
2023-01-08T05:37:47.654Z,98932.88
2023-01-08T05:41:50.939Z,98933.53
2023-01-08T05:45:53.186Z,98929.28
2023-01-08T05:49:55.842Z,98933.28
2023-01-08T05:53:58.294Z,98922.41
2023-01-08T05:58:05.955Z,98925.25
2023-01-08T06:02:09.930Z,98920.09
2023-01-08T06:06:13.492Z,98918.81
2023-01-08T06:10:16.045Z,98913.25
2023-01-08T06:19:02.919Z,98905.84
2023-01-08T06:23:05.097Z,98907.47
2023-01-08T06:27:07.405Z,98908.56
2023-01-08T06:31:09.683Z,98889.47
2023-01-08T06:35:12.044Z,98886.91
2023-01-08T06:39:14.990Z,98893.84
2023-01-08T06:43:18.094Z,98885.91
2023-01-08T06:47:20.296Z,98885.38
2023-01-08T06:51:22.545Z,98878.44
2023-01-08T06:55:26.231Z,98865.81
2023-01-08T06:59:28.362Z,98872.78
2023-01-08T07:03:30.613Z,98863.09
2023-01-08T07:07:33.980Z,98865.31
2023-01-08T07:11:36.219Z,98856.34
2023-01-08T07:15:43.072Z,98851.97
2023-01-08T07:19:45.276Z,98858.88
2023-01-08T07:23:49.391Z,98845.47
2023-01-08T07:27:51.568Z,98844.28
2023-01-08T07:31:53.862Z,98839.25
2023-01-08T07:36:03.415Z,98837.91
2023-01-08T07:40:09.135Z,98851.47
2023-01-08T07:44:12.111Z,98850.91
2023-01-08T07:48:18.174Z,98858.50
2023-01-08T07:52:20.315Z,98866.22
2023-01-08T07:56:23.781Z,98863.31
2023-01-08T08:00:26.672Z,98860.72
2023-01-08T08:04:28.869Z,98861.47
2023-01-08T08:08:31.311Z,98860.88
2023-01-08T08:12:33.538Z,98862.50
2023-01-08T08:16:35.695Z,98861.47
2023-01-08T08:20:38.464Z,98871.59
2023-01-08T08:24:41.804Z,98868.63
2023-01-08T08:28:44.722Z,98872.97
2023-01-08T08:32:46.927Z,98861.41
2023-01-08T08:36:49.969Z,98869.41
2023-01-08T08:40:52.651Z,98869.81
2023-01-08T08:44:54.890Z,98869.00
2023-01-08T08:48:57.242Z,98870.38
2023-01-08T08:53:03.307Z,98877.72
2023-01-08T08:57:05.652Z,98870.16
2023-01-08T09:01:08.505Z,98872.34
2023-01-08T09:05:11.736Z,98875.13
2023-01-08T09:09:15.587Z,98876.97
2023-01-08T09:13:17.842Z,98878.31
2023-01-08T09:17:21.532Z,98869.00
2023-01-08T09:21:23.690Z,98874.41
2023-01-08T09:25:25.899Z,98876.59
2023-01-08T09:29:28.073Z,98867.06
2023-01-08T09:33:31.379Z,98856.59
2023-01-08T09:37:33.762Z,98854.19
2023-01-08T09:41:40.216Z,98851.41
2023-01-08T09:45:45.905Z,98845.03
2023-01-08T09:49:49.806Z,98840.25
2023-01-08T09:53:56.442Z,98836.75
2023-01-08T09:58:03.303Z,98828.19
2023-01-08T10:02:18.880Z,98824.13
2023-01-08T10:06:26.752Z,98812.84
2023-01-08T10:10:34.771Z,98803.88
2023-01-08T10:14:40.997Z,98795.47
2023-01-08T10:18:44.155Z,98790.75
2023-01-08T10:22:50.736Z,98786.88
2023-01-08T10:26:54.482Z,98789.75
2023-01-08T10:31:06.023Z,98789.53
2023-01-08T10:35:17.881Z,98781.44
2023-01-08T10:39:25.633Z,98769.34
2023-01-08T10:43:32.808Z,98763.22
2023-01-08T10:47:36.685Z,98751.34
2023-01-08T10:51:50.392Z,98749.66
2023-01-08T10:56:06.436Z,98732.31
2023-01-08T11:00:23.564Z,98719.34
2023-01-08T11:04:33.961Z,98713.41
2023-01-08T11:08:36.611Z,98703.88
2023-01-08T11:12:41.230Z,98687.50
2023-01-08T11:16:43.792Z,98687.22
2023-01-08T11:20:48.410Z,98676.59
2023-01-08T11:24:54.715Z,98671.94
2023-01-08T11:29:14.801Z,98657.03
2023-01-08T11:33:23.824Z,98658.66
2023-01-08T11:37:34.313Z,98646.72
2023-01-08T11:41:36.677Z,98637.34
2023-01-08T11:46:02.975Z,98627.72
2023-01-08T11:50:33.964Z,98628.31
2023-01-08T11:54:57.443Z,98631.94
2023-01-08T11:59:14.971Z,98626.44
2023-01-08T12:03:47.937Z,98627.56
2023-01-08T12:08:13.291Z,98610.44
2023-01-08T12:12:26.685Z,98614.22
2023-01-08T12:16:56.943Z,98610.00
2023-01-08T12:21:33.709Z,98603.13
2023-01-08T12:25:39.364Z,98587.44
2023-01-08T12:30:06.739Z,98581.03
2023-01-08T12:34:34.563Z,98583.84
2023-01-08T12:38:44.136Z,98585.34
2023-01-08T12:42:59.953Z,98593.53
2023-01-08T12:47:08.167Z,98588.41
2023-01-08T12:51:26.465Z,98576.59
2023-01-08T12:55:57.265Z,98564.69
2023-01-08T13:00:19.734Z,98551.13
2023-01-08T13:04:30.516Z,98548.00
2023-01-08T13:08:38.471Z,98545.53
2023-01-08T13:12:41.592Z,98548.91
2023-01-08T13:16:47.547Z,98553.97
2023-01-08T13:21:01.253Z,98543.03
2023-01-08T13:25:15.774Z,98537.47
2023-01-08T13:29:28.287Z,98529.25
2023-01-08T13:33:47.376Z,98525.72
2023-01-08T13:38:13.215Z,98516.31
2023-01-08T13:42:25.002Z,98513.19
2023-01-08T13:46:28.939Z,98513.59
2023-01-08T13:50:39.407Z,98508.75
2023-01-08T13:54:43.730Z,98494.84
2023-01-08T13:58:52.704Z,98499.59
2023-01-08T14:02:55.361Z,98493.06
2023-01-08T14:07:27.290Z,98489.41
2023-01-08T14:11:38.644Z,98489.69
2023-01-08T14:15:41.209Z,98496.16
2023-01-08T14:19:44.627Z,98497.59
2023-01-08T14:23:48.694Z,98488.84
2023-01-08T14:28:00.195Z,98481.88
2023-01-08T14:32:05.430Z,98485.13
2023-01-08T14:36:08.688Z,98480.00
2023-01-08T14:40:21.213Z,98489.69
2023-01-08T14:44:36.476Z,98491.59
2023-01-08T14:48:46.043Z,98488.13
2023-01-08T14:52:50.723Z,98487.94
2023-01-08T14:57:01.520Z,98483.16
2023-01-08T15:01:22.872Z,98473.56
2023-01-08T15:05:32.459Z,98464.50
2023-01-08T15:09:40.074Z,98461.31
2023-01-08T15:13:46.795Z,98441.84
2023-01-08T15:17:49.183Z,98440.75
2023-01-08T15:22:00.385Z,98442.41
2023-01-08T15:26:04.699Z,98456.28
2023-01-08T15:30:28.987Z,98460.09
2023-01-08T15:34:36.943Z,98450.44
2023-01-08T15:38:43.227Z,98435.59
2023-01-08T15:43:10.623Z,98447.31
2023-01-08T15:47:12.928Z,98441.25
2023-01-08T15:51:18.473Z,98444.44
2023-01-08T15:55:25.771Z,98440.16
2023-01-08T15:59:34.007Z,98441.19
2023-01-08T16:03:36.248Z,98443.88
2023-01-08T16:07:42.821Z,98436.13
2023-01-08T16:11:46.251Z,98433.69
2023-01-08T16:15:49.051Z,98424.13
2023-01-08T16:19:51.281Z,98437.47
2023-01-08T16:23:53.489Z,98435.34
2023-01-08T16:28:07.005Z,98431.84
2023-01-08T16:32:09.866Z,98421.97
2023-01-08T16:36:12.096Z,98422.03
2023-01-08T16:40:15.150Z,98413.75
2023-01-08T16:44:22.649Z,98405.44
2023-01-08T16:48:25.095Z,98406.81
2023-01-08T16:52:27.686Z,98386.81
2023-01-08T16:56:31.251Z,98380.13
2023-01-08T17:00:40.823Z,98364.38
2023-01-08T17:04:44.177Z,98349.44
2023-01-08T17:08:48.017Z,98345.69
2023-01-08T17:12:51.607Z,98352.91
2023-01-08T17:16:54.612Z,98355.28
2023-01-08T17:20:56.858Z,98343.78
2023-01-08T17:24:59.275Z,98340.06
2023-01-08T17:29:01.481Z,98325.13
2023-01-08T17:33:03.969Z,98313.38
2023-01-08T17:37:06.444Z,98322.44
2023-01-08T17:41:37.103Z,98313.63
2023-01-08T17:45:40.584Z,98305.59
2023-01-08T17:49:43.053Z,98292.19
2023-01-08T17:53:47.766Z,98298.63
2023-01-08T17:57:53.468Z,98287.94
2023-01-08T18:01:56.091Z,98293.75
2023-01-08T18:05:59.632Z,98292.69
2023-01-08T18:10:03.770Z,98301.50
2023-01-08T18:14:07.471Z,98285.47
2023-01-08T18:18:10.278Z,98265.22
2023-01-08T18:22:13.151Z,98266.56
2023-01-08T18:26:17.582Z,98280.69
2023-01-08T18:30:21.457Z,98274.56
2023-01-08T18:34:23.806Z,98276.66
2023-01-08T18:38:25.993Z,98276.88
2023-01-08T18:42:28.298Z,98265.72
2023-01-08T18:46:31.094Z,98258.28
2023-01-08T18:50:34.652Z,98249.97
2023-01-08T18:54:39.657Z,98259.59
2023-01-08T18:58:42.720Z,98245.44
2023-01-08T19:02:44.929Z,98236.91
2023-01-08T19:06:47.135Z,98217.22
2023-01-08T19:10:50.890Z,98226.03
2023-01-08T19:14:54.195Z,98214.56
2023-01-08T19:18:57.137Z,98214.63
2023-01-08T19:22:59.897Z,98211.91
2023-01-08T19:27:02.839Z,98195.03
2023-01-08T19:31:05.253Z,98186.78
2023-01-08T19:35:08.362Z,98172.13
2023-01-08T19:39:12.222Z,98168.66
2023-01-08T19:43:43.688Z,98159.06
2023-01-08T19:47:48.563Z,98150.84
2023-01-08T19:51:52.216Z,98141.75
2023-01-08T19:55:55.003Z,98121.56
2023-01-08T19:59:58.716Z,98129.88
2023-01-08T20:04:01.723Z,98124.75
2023-01-08T20:08:06.637Z,98124.75
2023-01-08T20:12:11.420Z,98118.84
2023-01-08T20:16:17.177Z,98116.75
2023-01-08T20:20:19.548Z,98106.13
2023-01-08T20:24:22.488Z,98100.53
2023-01-08T20:28:25.302Z,98076.50
2023-01-08T20:32:31.459Z,98090.13
2023-01-08T20:36:36.132Z,98089.38
2023-01-08T20:40:40.749Z,98070.78
2023-01-08T20:44:45.177Z,98076.69
2023-01-08T20:48:50.111Z,98077.72
2023-01-08T20:52:52.879Z,98073.16
2023-01-08T20:56:57.405Z,98058.44
2023-01-08T21:01:10.929Z,98053.63
2023-01-08T21:05:13.159Z,98051.53
2023-01-08T21:09:16.730Z,98040.91
2023-01-08T21:13:19.148Z,98033.47
2023-01-08T21:17:21.289Z,98037.50
2023-01-08T21:21:33.230Z,98025.03
2023-01-08T21:25:35.871Z,98024.78
2023-01-08T21:29:38.173Z,98022.13
2023-01-08T21:33:41.402Z,98015.50
2023-01-08T21:37:44.061Z,98005.94
2023-01-08T21:42:07.405Z,97993.75
2023-01-08T21:46:12.058Z,97993.78
2023-01-08T21:50:14.527Z,97991.47
2023-01-08T21:54:18.363Z,97995.84
2023-01-08T21:58:22.089Z,97990.50
2023-01-08T22:02:25.282Z,97976.97
2023-01-08T22:06:30.695Z,97979.66
2023-01-08T22:10:35.419Z,97968.81
2023-01-08T22:14:39.299Z,97964.88
2023-01-08T22:18:45.621Z,97955.28
2023-01-08T22:22:50.401Z,97950.03
2023-01-08T22:26:54.175Z,97955.13
2023-01-08T22:31:03.115Z,97930.97
2023-01-08T22:35:06.179Z,97925.06
2023-01-08T22:39:14.467Z,97914.72
2023-01-08T22:43:28.058Z,97903.78
2023-01-08T22:47:39.395Z,97895.72
2023-01-08T22:51:44.666Z,97873.88
2023-01-08T22:55:57.193Z,97877.34
2023-01-08T23:00:03.747Z,97868.22
2023-01-08T23:04:16.297Z,97851.91
2023-01-08T23:08:26.912Z,97843.31
2023-01-08T23:12:35.684Z,97832.59
2023-01-08T23:16:46.547Z,97834.66
2023-01-08T23:20:49.043Z,97833.75
2023-01-08T23:24:57.336Z,97820.59
2023-01-08T23:29:13.322Z,97812.59
2023-01-08T23:33:20.063Z,97816.56
2023-01-08T23:37:27.574Z,97812.31
2023-01-08T23:41:36.357Z,97788.31
2023-01-08T23:45:41.495Z,97777.41
2023-01-08T23:49:50.654Z,97760.88
2023-01-08T23:53:56.665Z,97738.66
2023-01-08T23:58:04.485Z,97746.66
